Time;durP1;ratioP1;P1;durP2;ratioP2;P2;SDS_P1;SDS_P2;PMS_P1;PMS_P2;Temp;Humidity;BMP_temperature;BMP_pressure;BME280_temperature;BME280_humidity;BME280_pressure;Samples;Min_cycle;Max_cycle;Signal;HPM_P1;HPM_P2
2022/09/05 00:02:59;;;;;;;5.35;2.00;;;;;;;14.94;100.00;99898.75;4432710;32;20072;-73
2022/09/05 00:06:02;;;;;;;2.75;2.42;;;;;;;14.73;100.00;99859.81;4433383;32;20064;-68
2022/09/05 00:09:04;;;;;;;2.30;2.10;;;;;;;15.02;100.00;99900.19;4433795;32;20134;-68
2022/09/05 00:11:59;;;;;;;2.12;2.03;;;;;;;14.99;100.00;99893.38;4433618;32;20239;-68
2022/09/05 00:15:12;;;;;;;9.00;2.58;;;;;;;15.03;100.00;99901.81;4401625;32;20152;-68
2022/09/05 00:18:23;;;;;;;2.10;1.77;;;;;;;14.86;100.00;99899.25;4361126;32;20130;-69
2022/09/05 00:21:36;;;;;;;2.03;1.70;;;;;;;14.78;100.00;99886.97;4387208;32;20052;-69
2022/09/05 00:24:34;;;;;;;3.17;1.70;;;;;;;14.69;100.00;99869.53;4403104;32;20446;-69
2022/09/05 00:27:30;;;;;;;3.60;1.50;;;;;;;14.72;100.00;99890.69;4401960;32;20073;-69
2022/09/05 00:30:17;;;;;;;1.92;1.83;;;;;;;14.17;100.00;99873.56;4410378;32;20061;-69
2022/09/05 00:33:20;;;;;;;3.15;1.08;;;;;;;14.14;100.00;99891.12;4418167;32;20057;-69
2022/09/05 00:36:31;;;;;;;2.58;1.35;;;;;;;14.26;100.00;99890.97;4416604;32;20068;-69
2022/09/05 00:39:30;;;;;;;1.50;1.35;;;;;;;14.42;100.00;99886.53;4415532;32;20111;-69
2022/09/05 00:42:20;;;;;;;1.23;1.12;;;;;;;14.33;100.00;99894.31;4417792;32;20068;-69
2022/09/05 00:45:08;;;;;;;2.00;1.85;;;;;;;14.19;100.00;99866.00;4428198;32;20849;-69
2022/09/05 00:48:18;;;;;;;5.10;1.35;;;;;;;14.15;100.00;99903.59;4450816;32;20068;-69
2022/09/05 00:51:11;;;;;;;3.00;1.35;;;;;;;14.40;100.00;99890.59;4450043;32;20071;-68
2022/09/05 00:54:17;;;;;;;3.67;1.35;;;;;;;14.50;100.00;99888.81;4448728;32;20099;-68
2022/09/05 00:57:40;;;;;;;1.73;1.30;;;;;;;14.65;100.00;99896.31;4429321;32;20056;-69
2022/09/05 01:00:44;;;;;;;1.77;1.02;;;;;;;14.57;100.00;99895.91;4431611;32;20103;-69
2022/09/05 01:04:28;;;;;;;1.73;1.17;;;;;;;14.51;100.00;99898.56;4432983;32;20063;-69
2022/09/05 01:07:27;;;;;;;3.25;1.00;;;;;;;14.50;100.00;99899.66;4400437;32;20107;-68
2022/09/05 01:10:38;;;;;;;1.92;1.37;;;;;;;14.34;100.00;99901.37;4402639;32;20112;-69
2022/09/05 01:13:41;;;;;;;2.35;1.15;;;;;;;14.32;100.00;99897.28;4391544;32;20435;-69
2022/09/05 01:16:34;;;;;;;1.17;1.15;;;;;;;14.30;100.00;99904.84;4402242;32;20403;-69
2022/09/05 01:19:41;;;;;;;2.55;1.23;;;;;;;13.95;100.00;99860.00;4377412;32;20078;-69
2022/09/05 01:23:10;;;;;;;1.25;1.20;;;;;;;14.02;100.00;99893.13;4355225;32;20058;-74
2022/09/05 01:26:23;;;;;;;3.37;1.08;;;;;;;14.10;100.00;99894.56;4354618;32;20058;-70
2022/09/05 01:29:12;;;;;;;;;;;;;;;14.04;100.00;99901.84;4341989;33;20503;-70
2022/09/05 01:32:17;;;;;;;8.32;1.17;;;;;;;13.78;100.00;99898.75;4341844;33;19975;-69
2022/09/05 01:35:20;;;;;;;2.37;1.15;;;;;;;13.68;100.00;99871.56;4355901;32;20089;-69
2022/09/05 01:38:10;;;;;;;5.25;1.00;;;;;;;13.34;100.00;99879.75;4355294;32;20401;-72
2022/09/05 01:41:04;;;;;;;1.10;1.00;;;;;;;13.69;100.00;99905.69;4393695;32;20064;-68
2022/09/05 01:44:14;;;;;;;7.85;1.30;;;;;;;13.86;100.00;99902.94;4398974;32;20068;-67
2022/09/05 01:47:27;;;;;;;1.42;1.20;;;;;;;13.89;100.00;99909.75;4400167;32;20099;-74
2022/09/05 01:50:37;;;;;;;2.00;1.00;;;;;;;13.93;100.00;99917.13;4409375;32;20064;-69
2022/09/05 01:53:45;;;;;;;0.82;0.82;;;;;;;14.04;100.00;99888.28;4416103;32;20076;-69
2022/09/05 01:56:45;;;;;;;1.23;1.10;;;;;;;14.04;100.00;99915.38;4425439;32;20056;-68
2022/09/05 01:59:43;;;;;;;1.73;1.00;;;;;;;14.00;100.00;99916.94;4432414;32;20068;-68
2022/09/05 02:02:50;;;;;;;0.98;0.90;;;;;;;13.74;100.00;99911.16;4431027;32;20067;-69
2022/09/05 02:06:32;;;;;;;0.73;0.73;;;;;;;13.55;100.00;99926.03;4431740;32;20083;-69
2022/09/05 02:09:20;;;;;;;1.75;1.05;;;;;;;13.74;100.00;99927.41;4356818;32;20097;-68
2022/09/05 02:12:14;;;;;;;1.23;1.12;;;;;;;13.51;100.00;99935.72;4327007;33;20107;-68
2022/09/05 02:15:05;;;;;;;3.87;1.25;;;;;;;13.39;100.00;99917.69;4335928;33;20081;-68
2022/09/05 02:17:56;;;;;;;1.20;1.05;;;;;;;13.37;100.00;99930.63;4340522;33;20110;-68
2022/09/05 02:20:41;;;;;;;1.40;1.17;;;;;;;13.33;100.00;99934.88;4346513;32;20468;-68
2022/09/05 02:23:50;;;;;;;5.37;1.10;;;;;;;13.24;100.00;99936.31;4359902;32;20069;-69
2022/09/05 02:26:45;;;;;;;3.72;0.90;;;;;;;13.24;100.00;99937.16;4386170;32;20060;-69
2022/09/05 02:30:07;;;;;;;5.43;1.12;;;;;;;13.42;100.00;99928.00;4371277;32;20069;-69
2022/09/05 02:33:16;;;;;;;2.83;1.10;;;;;;;13.48;100.00;99926.19;4366231;32;20065;-68
2022/09/05 02:36:11;;;;;;;3.37;0.80;;;;;;;13.09;100.00;99891.75;4356140;32;20066;-69
2022/09/05 02:39:05;;;;;;;1.15;1.00;;;;;;;12.86;100.00;99897.28;4357933;32;20065;-68
2022/09/05 02:42:32;;;;;;;1.48;0.80;;;;;;;12.93;100.00;99853.91;4371676;32;20061;-68
2022/09/05 02:45:32;;;;;;;0.62;0.62;;;;;;;13.41;100.00;99929.06;4332607;33;20529;-69
2022/09/05 02:48:42;;;;;;;1.52;0.90;;;;;;;13.58;100.00;99922.84;4329990;33;20121;-69
2022/09/05 02:51:34;;;;;;;2.40;0.80;;;;;;;13.52;100.00;99921.12;4341122;33;20069;-69
2022/09/05 02:54:29;;;;;;;;;;;;;;;13.25;100.00;99919.03;4309268;33;20070;-70
2022/09/05 02:57:44;;;;;;;0.80;0.80;;;;;;;13.74;100.00;99913.88;4311448;33;20300;-69
2022/09/05 03:00:47;;;;;;;0.80;0.80;;;;;;;13.57;100.00;99913.06;4319824;33;20074;-69
2022/09/05 03:03:47;;;;;;;0.80;0.80;;;;;;;13.39;100.00;99912.28;4311831;33;20063;-68
2022/09/05 03:06:42;;;;;;;1.20;0.85;;;;;;;13.26;100.00;99875.53;4320019;33;20440;-68
2022/09/05 03:09:37;;;;;;;2.35;0.98;;;;;;;13.04;100.00;99872.75;4324380;33;20493;-72
2022/09/05 03:12:43;;;;;;;0.82;0.80;;;;;;;13.41;100.00;99853.31;4326032;33;20083;-69
2022/09/05 03:15:46;;;;;;;0.60;0.60;;;;;;;13.53;100.00;99887.56;4324688;33;20113;-68
2022/09/05 03:19:09;;;;;;;0.88;0.85;;;;;;;13.38;100.00;99910.63;4325459;33;20070;-73
2022/09/05 03:22:19;;;;;;;3.60;1.15;;;;;;;13.48;100.00;99914.56;4331381;33;20077;-73
2022/09/05 03:25:42;;;;;;;0.90;0.90;;;;;;;13.29;100.00;99908.53;4361253;32;20466;-72
2022/09/05 03:28:58;;;;;;;2.05;1.20;;;;;;;13.23;100.00;99880.63;4384840;32;20061;-69
2022/09/05 03:32:07;;;;;;;3.47;1.00;;;;;;;13.49;100.00;99921.62;4384763;32;20057;-69
2022/09/05 03:35:07;;;;;;;3.85;0.70;;;;;;;13.34;100.00;99930.28;4394550;32;20056;-69
2022/09/05 03:37:58;;;;;;;5.05;1.10;;;;;;;13.29;100.00;99885.03;4395289;32;20490;-69
2022/09/05 03:41:22;;;;;;;1.45;0.73;;;;;;;13.38;100.00;99921.44;4398943;32;20073;-73
2022/09/05 03:44:13;;;;;;;1.42;0.73;;;;;;;13.22;100.00;99922.25;4397528;32;20088;-73
2022/09/05 03:47:33;;;;;;;0.73;0.73;;;;;;;13.00;100.00;99893.22;4385396;32;20072;-68
2022/09/05 03:50:44;;;;;;;3.03;1.02;;;;;;;13.09;100.00;99907.97;4355587;32;20492;-69
2022/09/05 03:53:41;;;;;;;2.60;0.65;;;;;;;12.98;100.00;99898.03;4355552;32;20073;-68
2022/09/05 03:56:32;;;;;;;3.35;0.70;;;;;;;13.19;100.00;99933.53;4353191;32;20065;-68
2022/09/05 03:59:57;;;;;;;1.08;0.95;;;;;;;13.17;100.00;99941.91;4339565;32;20058;-68
2022/09/05 04:03:08;;;;;;;2.78;1.10;;;;;;;13.11;100.00;99942.06;4310274;33;20119;-69
2022/09/05 04:06:27;;;;;;;3.15;1.80;;;;;;;12.77;100.00;99904.97;4333002;33;20085;-68
2022/09/05 04:09:23;;;;;;;0.70;0.70;;;;;;;13.07;100.00;99945.25;4365377;32;20121;-68
2022/09/05 04:12:33;;;;;;;1.40;0.90;;;;;;;13.12;100.00;99943.72;4370269;32;20072;-68
2022/09/05 04:15:29;;;;;;;0.90;0.90;;;;;;;13.03;100.00;99951.38;4369938;32;20116;-69
2022/09/05 04:18:17;;;;;;;0.75;0.75;;;;;;;12.74;100.00;99916.28;4324915;33;20127;-70
2022/09/05 04:21:07;;;;;;;0.80;0.80;;;;;;;13.03;100.00;99951.38;4325861;33;20066;-70
2022/09/05 04:24:00;;;;;;;3.58;0.70;;;;;;;13.01;100.00;99957.03;4324655;33;20070;-70
2022/09/05 04:27:03;;;;;;;1.20;0.80;;;;;;;12.78;100.00;99919.31;4321657;33;20058;-69
2022/09/05 04:29:56;;;;;;;1.27;1.20;;;;;;;13.01;100.00;99927.28;4333864;33;20070;-69
2022/09/05 04:32:58;;;;;;;1.02;0.82;;;;;;;13.28;100.00;99948.31;4352865;32;20069;-70
2022/09/05 04:36:00;;;;;;;2.80;0.93;;;;;;;13.04;100.00;99932.22;4356562;32;20067;-69
2022/09/05 04:38:45;;;;;;;0.80;0.80;;;;;;;13.34;100.00;99941.94;4343138;33;20061;-67
2022/09/05 04:41:32;;;;;;;0.80;0.80;;;;;;;13.19;100.00;99966.81;4332366;33;20178;-73
2022/09/05 04:44:26;;;;;;;1.12;0.70;;;;;;;13.14;100.00;99964.00;4313554;33;20146;-68
2022/09/05 04:47:19;;;;;;;3.17;0.45;;;;;;;13.22;100.00;99971.72;4325843;33;20091;-69
2022/09/05 04:50:16;;;;;;;2.37;0.90;;;;;;;13.04;100.00;99972.78;4326624;33;20510;-70
2022/09/05 04:53:30;;;;;;;4.80;0.80;;;;;;;13.27;100.00;99968.28;4313002;33;20071;-68
2022/09/05 04:56:21;;;;;;;0.98;0.93;;;;;;;13.14;100.00;99957.78;4327677;33;20085;-68
2022/09/05 04:59:30;;;;;;;3.40;1.10;;;;;;;13.39;100.00;99981.78;4327793;33;20058;-68
2022/09/05 05:02:40;;;;;;;0.60;0.60;;;;;;;13.52;100.00;99996.88;4326314;33;20078;-68
2022/09/05 05:05:42;;;;;;;1.48;0.60;;;;;;;13.66;100.00;99997.34;4328597;32;20362;-69
2022/09/05 05:08:44;;;;;;;3.30;0.82;;;;;;;13.61;100.00;99996.22;4342244;33;20066;-69
2022/09/05 05:12:02;;;;;;;1.33;0.82;;;;;;;13.46;100.00;99960.78;4355435;32;20392;-69
2022/09/05 05:14:56;;;;;;;0.50;0.50;;;;;;;13.88;100.00;99994.72;4359551;32;20068;-69
2022/09/05 05:17:58;;;;;;;3.58;0.70;;;;;;;14.06;100.00;99996.34;4376398;32;20065;-68
2022/09/05 05:20:58;;;;;;;4.53;0.70;;;;;;;14.27;100.00;100000.16;4386623;32;20112;-68
2022/09/05 05:23:49;;;;;;;1.00;1.00;;;;;;;14.00;100.00;100003.56;4371894;32;20081;-68
2022/09/05 05:26:39;;;;;;;1.58;0.90;;;;;;;13.67;100.00;99999.81;4357063;32;20061;-68
2022/09/05 05:29:51;;;;;;;0.70;0.70;;;;;;;13.55;100.00;99916.03;4342180;33;20102;-68
2022/09/05 05:32:43;;;;;;;2.53;0.87;;;;;;;13.80;100.00;99960.75;4342238;33;20735;-69
2022/09/05 05:35:32;;;;;;;1.60;1.00;;;;;;;13.93;100.00;99916.31;4341083;33;20159;-69
2022/09/05 05:38:16;;;;;;;1.60;0.73;;;;;;;14.11;100.00;99983.69;4341628;33;20062;-69
2022/09/05 05:41:23;;;;;;;9.15;1.62;;;;;;;14.10;100.00;99971.22;4353184;32;20077;-72
2022/09/05 05:44:24;;;;;;;2.42;0.98;;;;;;;14.60;100.00;100011.97;4326964;33;20066;-75
2022/09/05 05:47:50;;;;;;;3.00;0.93;;;;;;;14.40;100.00;99999.78;4309911;33;20352;-74
2022/09/05 05:51:06;;;;;;;1.42;0.80;;;;;;;14.48;100.00;99969.53;4275348;33;20154;-74
2022/09/05 05:54:21;;;;;;;7.03;0.93;;;;;;;14.54;100.00;100001.03;4281472;33;20115;-74
2022/09/05 05:57:27;;;;;;;7.53;0.90;;;;;;;14.73;100.00;99973.66;4280358;33;20079;-76
2022/09/05 06:00:20;;;;;;;1.80;0.80;;;;;;;14.77;100.00;99974.78;4289010;33;20098;-73
2022/09/05 06:03:47;;;;;;;0.90;0.85;;;;;;;14.92;100.00;99993.13;4308761;33;20070;-75
2022/09/05 06:06:59;;;;;;;4.55;1.25;;;;;;;14.87;100.00;100018.28;4331346;33;20073;-74
2022/09/05 06:09:49;;;;;;;1.52;0.95;;;;;;;15.33;98.76;100019.81;4350043;32;20069;-74
2022/09/05 06:12:50;;;;;;;1.20;1.10;;;;;;;15.50;99.02;100017.81;4351581;33;20069;-74
2022/09/05 06:16:00;;;;;;;3.17;0.80;;;;;;;15.31;100.00;99984.81;4355840;32;20069;-75
2022/09/05 06:19:13;;;;;;;1.80;0.73;;;;;;;15.44;100.00;99983.56;4354685;32;20262;-74
2022/09/05 06:22:32;;;;;;;4.15;1.73;;;;;;;15.47;98.53;100026.47;4364838;32;20403;-74
2022/09/05 06:25:41;;;;;;;1.80;0.80;;;;;;;15.31;100.00;100021.97;4358470;32;20119;-74
2022/09/05 06:28:31;;;;;;;2.05;0.75;;;;;;;15.81;97.32;100020.78;4367695;32;20062;-74
2022/09/05 06:31:35;;;;;;;1.02;0.93;;;;;;;15.62;99.14;100018.47;4370502;32;20065;-74
2022/09/05 06:34:37;;;;;;;4.12;1.02;;;;;;;15.26;98.12;99993.72;4369366;32;20057;-75
2022/09/05 06:37:33;;;;;;;2.13;0.93;;;;;;;15.52;100.00;99991.22;4360844;32;20459;-73
2022/09/05 06:40:31;;;;;;;2.03;0.80;;;;;;;15.59;94.20;99989.12;4348823;32;20174;-73
2022/09/05 06:43:32;;;;;;;0.93;0.93;;;;;;;15.60;92.46;100026.06;4339644;33;20058;-74
2022/09/05 06:46:30;;;;;;;3.70;1.00;;;;;;;15.53;93.81;100022.72;4345792;33;20073;-74
2022/09/05 06:49:33;;;;;;;1.60;1.00;;;;;;;15.86;93.00;100036.31;4358809;32;20117;-74
2022/09/05 06:52:47;;;;;;;3.20;0.77;;;;;;;15.40;96.79;100036.72;4370413;32;20073;-74
2022/09/05 06:55:56;;;;;;;0.98;0.85;;;;;;;15.49;98.62;100002.59;4362301;32;20057;-75
2022/09/05 06:58:57;;;;;;;2.80;0.60;;;;;;;15.81;96.57;100039.81;4381462;32;20105;-75
2022/09/05 07:02:06;;;;;;;5.28;1.15;;;;;;;15.88;95.90;100007.81;4366904;32;20049;-77
2022/09/05 07:05:18;;;;;;;5.78;0.80;;;;;;;16.00;92.88;100040.22;4370436;32;20061;-73
2022/09/05 07:08:26;;;;;;;5.18;0.88;;;;;;;16.08;90.57;100036.19;4370686;32;20404;-74
2022/09/05 07:11:20;;;;;;;1.12;1.10;;;;;;;16.13;89.83;99995.47;4370283;32;20444;-73
2022/09/05 07:14:39;;;;;;;0.93;0.93;;;;;;;16.30;85.48;99996.13;4378028;32;20072;-75
2022/09/05 07:17:45;;;;;;;0.88;0.70;;;;;;;16.42;83.10;100038.56;4392972;32;20080;-74
2022/09/05 07:20:38;;;;;;;2.20;1.10;;;;;;;16.30;86.21;100039.59;4382299;32;20065;-75
2022/09/05 07:23:29;;;;;;;1.05;1.00;;;;;;;16.65;88.34;100046.28;4384273;32;20061;-74
2022/09/05 07:26:16;;;;;;;1.90;0.82;;;;;;;17.03;85.76;100052.47;4384106;32;20061;-75
2022/09/05 07:29:05;;;;;;;1.20;1.12;;;;;;;17.23;84.09;100048.16;4369691;32;20069;-75
2022/09/05 07:31:53;;;;;;;5.45;3.55;;;;;;;16.46;86.21;99950.00;4369281;32;20065;-74
2022/09/05 07:34:38;;;;;;;1.52;1.33;;;;;;;17.08;76.94;100048.13;4354815;33;20069;-79
2022/09/05 07:37:31;;;;;;;5.18;0.62;;;;;;;17.24;81.93;100044.34;4355370;33;20159;-74
2022/09/05 07:40:21;;;;;;;1.05;0.88;;;;;;;16.92;78.80;100044.53;4353417;33;20479;-75
2022/09/05 07:43:18;;;;;;;2.55;0.93;;;;;;;16.56;74.78;100015.28;4355429;33;20172;-74
2022/09/05 07:46:11;;;;;;;2.85;0.80;;;;;;;16.68;75.22;100051.22;4355336;33;20074;-74
2022/09/05 07:49:11;;;;;;;0.65;0.65;;;;;;;16.37;75.43;100024.97;4354008;33;20057;-75
2022/09/05 07:52:00;;;;;;;0.95;0.65;;;;;;;16.67;81.03;100032.44;4355165;33;20069;-74
2022/09/05 07:54:50;;;;;;;0.70;0.70;;;;;;;17.03;82.19;100059.81;4355138;33;20077;-74
2022/09/05 07:57:42;;;;;;;1.92;1.05;;;;;;;17.38;80.76;100059.06;4367293;32;20068;-74
2022/09/05 08:00:29;;;;;;;1.42;0.98;;;;;;;17.51;78.69;100073.25;4397097;32;20150;-74
2022/09/05 08:03:14;;;;;;;1.27;0.90;;;;;;;17.39;78.43;100066.16;4402942;32;20060;-73
2022/09/05 08:06:04;;;;;;;3.95;0.73;;;;;;;17.34;73.56;100057.16;4402455;32;20677;-75
2022/09/05 08:08:55;;;;;;;0.80;0.80;;;;;;;17.81;74.83;100077.09;4371277;32;20380;-74
2022/09/05 08:11:41;;;;;;;10.00;0.82;;;;;;;17.54;73.70;100040.03;4356753;32;20480;-75
2022/09/05 08:14:42;;;;;;;6.87;1.00;;;;;;;17.43;72.31;100066.44;4356483;32;20066;-74
2022/09/05 08:17:27;;;;;;;7.80;0.77;;;;;;;17.83;73.68;100036.78;4357486;32;20097;-75
2022/09/05 08:20:48;;;;;;;0.65;0.65;;;;;;;17.89;77.74;100041.16;4355151;32;20065;-74
2022/09/05 08:23:46;;;;;;;5.87;1.00;;;;;;;17.93;77.24;100036.78;4356081;32;20049;-75
2022/09/05 08:26:59;;;;;;;0.85;0.85;;;;;;;17.86;77.85;100077.09;4369968;32;20065;-75
2022/09/05 08:29:52;;;;;;;1.05;0.95;;;;;;;17.75;72.92;100047.13;4356651;32;20396;-74
2022/09/05 08:33:04;;;;;;;0.77;0.73;;;;;;;18.14;73.51;100076.56;4357424;32;20073;-74
2022/09/05 08:35:57;;;;;;;3.70;0.80;;;;;;;18.25;72.13;100074.66;4356142;32;20078;-74
2022/09/05 08:38:43;;;;;;;2.45;0.95;;;;;;;18.31;75.99;100075.44;4357603;32;20122;-75
2022/09/05 08:41:45;;;;;;;0.80;0.80;;;;;;;18.26;74.03;100061.81;4370103;32;20314;-75
2022/09/05 08:44:39;;;;;;;5.28;0.60;;;;;;;18.02;73.86;100040.59;4355473;32;20372;-75
2022/09/05 08:47:43;;;;;;;1.12;0.90;;;;;;;18.49;69.08;100066.69;4356268;32;20054;-75
2022/09/05 08:50:57;;;;;;;9.45;1.00;;;;;;;18.25;61.94;100036.47;4356163;32;20105;-74
2022/09/05 08:54:03;;;;;;;6.15;0.77;;;;;;;18.58;59.89;100068.84;4356149;32;20058;-74
2022/09/05 08:57:21;;;;;;;1.50;0.70;;;;;;;18.08;61.35;100027.78;4355634;32;20319;-74
2022/09/05 09:00:08;;;;;;;0.90;0.90;;;;;;;18.37;57.72;100065.34;4330211;33;20058;-74
2022/09/05 09:03:03;;;;;;;1.65;0.75;;;;;;;18.56;57.55;100057.41;4345158;33;20066;-74
2022/09/05 09:05:53;;;;;;;4.40;0.90;;;;;;;18.54;55.16;100056.84;4326872;33;20066;-74
2022/09/05 09:09:06;;;;;;;0.57;0.57;;;;;;;18.39;54.01;100054.97;4326087;33;20074;-75
2022/09/05 09:12:02;;;;;;;0.80;0.73;;;;;;;18.08;53.03;100012.25;4326487;33;20062;-74
2022/09/05 09:15:10;;;;;;;2.95;1.00;;;;;;;18.49;53.04;100028.50;4326500;33;20104;-74
2022/09/05 09:17:55;;;;;;;0.75;0.75;;;;;;;18.63;53.96;100014.25;4312312;33;20514;-74
2022/09/05 09:20:46;;;;;;;1.65;0.70;;;;;;;18.56;53.74;100016.50;4312439;33;20062;-73
2022/09/05 09:23:48;;;;;;;0.60;0.60;;;;;;;18.96;51.98;100031.06;4311879;33;20066;-73
2022/09/05 09:26:41;;;;;;;1.90;0.82;;;;;;;18.99;50.49;100046.87;4311619;33;20066;-74
2022/09/05 09:29:33;;;;;;;1.42;1.35;;;;;;;18.96;48.52;100039.25;4311479;33;20469;-74
2022/09/05 09:32:23;;;;;;;4.28;0.90;;;;;;;18.75;49.97;100009.31;4327476;33;20066;-74
2022/09/05 09:35:11;;;;;;;0.90;0.90;;;;;;;18.87;51.21;100023.47;4326827;33;20105;-74
2022/09/05 09:38:33;;;;;;;1.52;1.42;;;;;;;19.30;52.12;100033.03;4345814;33;20066;-74
2022/09/05 09:41:52;;;;;;;0.70;0.70;;;;;;;19.54;52.74;100024.94;4371819;32;20069;-74
2022/09/05 09:44:51;;;;;;;1.45;1.20;;;;;;;19.67;51.63;100029.75;4386624;32;20493;-75
2022/09/05 09:47:39;;;;;;;2.87;0.60;;;;;;;19.67;49.38;99996.16;4375964;32;20064;-75
2022/09/05 09:50:53;;;;;;;0.93;0.65;;;;;;;19.52;47.30;100025.22;4402110;32;20438;-75
2022/09/05 09:54:07;;;;;;;2.30;0.70;;;;;;;19.82;48.18;100031.56;4430847;32;20442;-74
2022/09/05 09:57:31;;;;;;;3.20;0.70;;;;;;;20.07;47.00;100029.69;4430959;32;20071;-75
2022/09/05 10:00:20;;;;;;;3.70;0.60;;;;;;;19.60;47.17;100030.06;4335109;32;20121;-74
2022/09/05 10:03:16;;;;;;;0.50;0.50;;;;;;;19.81;47.58;100024.47;4386209;32;20061;-75
2022/09/05 10:06:13;;;;;;;0.60;0.60;;;;;;;20.14;48.65;100024.72;4384328;32;20162;-75
2022/09/05 10:09:19;;;;;;;0.70;0.70;;;;;;;19.97;47.92;99995.09;4386150;32;20116;-74
2022/09/05 10:12:37;;;;;;;2.20;0.95;;;;;;;20.05;47.01;99994.44;4386378;32;20162;-74
2022/09/05 10:15:27;;;;;;;6.05;0.75;;;;;;;20.14;47.85;100021.97;4386419;32;20369;-73
2022/09/05 10:18:29;;;;;;;1.77;0.93;;;;;;;20.29;47.63;100024.53;4354344;32;20058;-79
2022/09/05 10:21:37;;;;;;;1.12;0.80;;;;;;;20.35;47.91;100005.34;4355925;32;20073;-74
2022/09/05 10:25:00;;;;;;;3.25;0.70;;;;;;;20.44;45.56;100020.84;4343816;33;20484;-76
2022/09/05 10:27:53;;;;;;;4.95;0.88;;;;;;;20.75;44.42;100017.75;4345172;32;20077;-74
2022/09/05 10:31:01;;;;;;;1.20;0.75;;;;;;;20.50;42.90;100010.63;4375148;32;20351;-74
2022/09/05 10:34:21;;;;;;;4.25;0.95;;;;;;;20.62;43.68;100011.03;4381361;32;20387;-75
2022/09/05 10:37:11;;;;;;;2.17;0.88;;;;;;;20.92;46.35;100003.56;4337707;33;20069;-74
2022/09/05 10:40:04;;;;;;;0.90;0.82;;;;;;;20.88;44.64;100013.47;4342205;32;20070;-74
2022/09/05 10:42:53;;;;;;;4.75;0.80;;;;;;;20.96;42.92;100009.25;4355712;32;20734;-73
2022/09/05 10:45:56;;;;;;;2.72;0.75;;;;;;;20.74;44.28;100012.56;4355822;32;20069;-75
2022/09/05 10:48:48;;;;;;;1.30;0.73;;;;;;;20.82;45.11;100009.16;4345985;33;20439;-73
2022/09/05 10:51:37;;;;;;;3.85;0.70;;;;;;;20.75;43.66;100004.06;4323097;33;20070;-75
2022/09/05 10:55:16;;;;;;;0.65;0.65;;;;;;;21.09;43.09;100007.72;4325590;33;20066;-74
2022/09/05 10:58:18;;;;;;;0.57;0.57;;;;;;;20.72;44.46;99992.91;4322454;33;20382;-75
2022/09/05 11:01:22;;;;;;;0.80;0.80;;;;;;;20.99;46.14;100004.00;4321105;33;20379;-74
2022/09/05 11:04:42;;;;;;;0.60;0.60;;;;;;;21.89;43.64;100003.16;4325368;33;20062;-74
2022/09/05 11:08:15;;;;;;;0.60;0.60;;;;;;;21.76;43.24;100005.59;4280885;33;20051;-74
2022/09/05 11:11:16;;;;;;;3.22;0.90;;;;;;;21.68;42.73;99992.53;4250351;33;20071;-74
2022/09/05 11:14:19;;;;;;;1.02;1.02;;;;;;;20.94;43.21;99952.06;4267072;33;20067;-75
2022/09/05 11:17:22;;;;;;;4.72;0.80;;;;;;;20.97;42.77;99940.53;4257482;33;20384;-74
2022/09/05 11:20:19;;;;;;;1.67;0.93;;;;;;;21.57;40.80;99952.72;4267191;33;20068;-75
2022/09/05 11:23:36;;;;;;;0.65;0.60;;;;;;;22.64;40.51;99981.97;4289417;33;20062;-74
2022/09/05 11:26:56;;;;;;;3.60;0.90;;;;;;;22.65;38.79;99987.16;4281518;33;20062;-74
2022/09/05 11:29:51;;;;;;;1.58;1.48;;;;;;;22.94;37.89;99976.94;4255932;33;20087;-74
2022/09/05 11:33:04;;;;;;;0.73;0.73;;;;;;;22.41;40.47;99981.91;4266704;33;20411;-74
2022/09/05 11:35:52;;;;;;;0.60;0.60;;;;;;;23.12;39.42;99983.41;4264755;33;20107;-79
2022/09/05 11:38:55;;;;;;;0.60;0.60;;;;;;;23.18;37.88;99976.69;4270114;33;20495;-74
2022/09/05 11:42:00;;;;;;;2.72;0.77;;;;;;;22.48;37.92;99976.81;4255805;33;20083;-76
2022/09/05 11:45:13;;;;;;;7.10;0.60;;;;;;;22.51;38.88;99969.91;4307623;33;20082;-74
2022/09/05 11:48:13;;;;;;;0.60;0.60;;;;;;;23.04;36.24;99976.72;4326868;33;20066;-77
2022/09/05 11:51:32;;;;;;;7.50;1.10;;;;;;;22.77;38.36;99972.09;4328405;33;20057;-74
2022/09/05 11:54:30;;;;;;;3.20;0.70;;;;;;;22.62;39.44;99970.50;4297203;33;20069;-75
2022/09/05 11:57:30;;;;;;;1.27;0.70;;;;;;;22.23;38.66;99952.63;4336549;33;20101;-75
2022/09/05 12:00:35;;;;;;;3.10;0.80;;;;;;;22.42;39.54;99939.63;4341335;33;20058;-72
2022/09/05 12:03:50;;;;;;;0.80;0.80;;;;;;;22.49;39.13;99970.19;4341740;33;20070;-79
2022/09/05 12:06:46;;;;;;;0.93;0.93;;;;;;;22.23;37.68;99947.16;4360770;32;20053;-76
2022/09/05 12:09:43;;;;;;;0.60;0.60;;;;;;;22.76;38.46;99962.25;4371940;32;20057;-73
2022/09/05 12:12:40;;;;;;;1.55;0.88;;;;;;;23.01;36.95;99928.72;4364471;32;20768;-74
2022/09/05 12:15:33;;;;;;;0.90;0.90;;;;;;;23.75;37.31;99973.34;4369229;32;20065;-76
2022/09/05 12:18:41;;;;;;;0.70;0.70;;;;;;;23.15;39.06;99967.16;4386757;32;20080;-74
2022/09/05 12:21:43;;;;;;;0.65;0.50;;;;;;;22.62;37.05;99965.81;4372002;32;20064;-75
2022/09/05 12:25:07;;;;;;;0.50;0.50;;;;;;;21.95;39.16;99969.06;4384838;32;20399;-75
2022/09/05 12:27:59;;;;;;;0.60;0.60;;;;;;;22.12;38.66;99961.03;4342115;33;20636;-74
2022/09/05 12:30:44;;;;;;;3.08;0.65;;;;;;;22.82;38.10;99963.75;4327108;33;20058;-74
2022/09/05 12:33:30;;;;;;;1.65;0.70;;;;;;;23.10;38.21;99942.53;4326529;33;20206;-74
2022/09/05 12:36:54;;;;;;;0.90;0.60;;;;;;;22.29;41.06;99923.97;4327224;33;20066;-74
2022/09/05 12:39:43;;;;;;;0.95;0.82;;;;;;;23.06;37.69;99952.50;4301834;33;20074;-74
2022/09/05 12:42:49;;;;;;;6.35;1.70;;;;;;;22.81;35.65;99927.25;4284516;33;20063;-74
2022/09/05 12:45:56;;;;;;;3.00;0.80;;;;;;;23.54;37.24;99951.88;4283506;33;20067;-73
2022/09/05 12:48:51;;;;;;;0.75;0.75;;;;;;;23.24;36.22;99952.66;4280870;33;20059;-78
2022/09/05 12:51:52;;;;;;;5.95;0.70;;;;;;;22.80;36.56;99914.66;4282567;33;20063;-73
2022/09/05 12:54:58;;;;;;;3.58;0.82;;;;;;;22.51;37.91;99947.13;4282977;33;20370;-74
2022/09/05 12:57:47;;;;;;;0.60;0.60;;;;;;;22.57;36.18;99945.91;4282163;33;20540;-75
2022/09/05 13:00:43;;;;;;;2.35;0.60;;;;;;;22.03;35.80;99888.81;4283151;33;20133;-74
2022/09/05 13:03:29;;;;;;;0.52;0.52;;;;;;;22.45;36.75;99943.72;4281859;33;20079;-75
2022/09/05 13:06:24;;;;;;;1.48;0.55;;;;;;;22.83;36.87;99937.91;4278443;33;20064;-74
2022/09/05 13:09:21;;;;;;;5.62;0.65;;;;;;;23.09;37.76;99937.34;4301526;33;20489;-74
2022/09/05 13:12:15;;;;;;;0.57;0.57;;;;;;;22.80;37.53;99906.41;4314561;33;20058;-74
2022/09/05 13:15:18;;;;;;;1.12;0.60;;;;;;;22.92;37.58;99933.31;4370578;32;20057;-73
2022/09/05 13:18:38;;;;;;;2.00;0.57;;;;;;;22.57;37.73;99943.16;4367763;32;20407;-74
2022/09/05 13:21:26;;;;;;;5.03;1.27;;;;;;;22.37;37.04;99939.75;4413364;32;20537;-74
2022/09/05 13:24:16;;;;;;;1.83;0.88;;;;;;;21.98;37.61;99908.13;4409924;32;20136;-74
2022/09/05 13:27:12;;;;;;;3.58;0.70;;;;;;;21.85;37.74;99930.88;4443443;32;20238;-75
2022/09/05 13:30:07;;;;;;;4.28;0.60;;;;;;;22.14;38.82;99939.59;4444013;32;20414;-74
2022/09/05 13:33:04;;;;;;;4.15;0.90;;;;;;;21.94;37.62;99935.34;4439840;32;20063;-78
2022/09/05 13:36:02;;;;;;;1.67;0.60;;;;;;;21.81;38.79;99927.09;4446689;32;20091;-74
2022/09/05 13:39:10;;;;;;;1.37;0.70;;;;;;;21.48;37.80;99907.97;4440073;32;20071;-74
2022/09/05 13:42:02;;;;;;;0.77;0.57;;;;;;;21.74;38.63;99925.56;4437205;32;20434;-76
2022/09/05 13:44:53;;;;;;;4.20;0.70;;;;;;;21.55;38.85;99900.16;4436690;32;20082;-75
2022/09/05 13:48:03;;;;;;;2.20;0.65;;;;;;;21.33;39.37;99925.44;4437750;32;20104;-75
2022/09/05 13:50:53;;;;;;;1.65;0.60;;;;;;;21.28;39.26;99920.88;4434909;32;20075;-75
2022/09/05 13:53:57;;;;;;;0.68;0.62;;;;;;;21.27;40.05;99929.38;4447448;32;20071;-75
2022/09/05 13:56:52;;;;;;;2.08;0.60;;;;;;;21.50;39.36;99924.94;4437353;32;20056;-74
2022/09/05 13:59:40;;;;;;;2.50;0.70;;;;;;;21.49;40.56;99929.59;4447066;32;20071;-74
2022/09/05 14:03:22;;;;;;;2.50;0.60;;;;;;;21.23;40.19;99890.84;4447793;32;20377;-75
2022/09/05 14:06:37;;;;;;;0.65;0.50;;;;;;;21.34;40.72;99922.41;4311330;33;20218;-68
2022/09/05 14:09:32;;;;;;;2.83;1.00;;;;;;;21.75;39.25;99916.25;4355279;32;20109;-68